Time;durP1;ratioP1;P1;durP2;ratioP2;P2;SDS_P1;SDS_P2;PMS_P1;PMS_P2;Temp;Humidity;BMP_temperature;BMP_pressure;BME280_temperature;BME280_humidity;BME280_pressure;Samples;Min_cycle;Max_cycle;Signal;HPM_P1;HPM_P2
2021/07/27 00:02:19;;;;;;;23.35;16.15;;;17.70;99.90;;;;;;4778522;29;20047;-88
2021/07/27 00:04:46;;;;;;;25.13;17.35;;;17.70;99.90;;;;;;4804522;29;20056;-90
2021/07/27 00:07:13;;;;;;;21.17;15.48;;;17.70;99.90;;;;;;4803176;29;20501;-89
2021/07/27 00:09:40;;;;;;;19.70;15.25;;;17.70;99.90;;;;;;4819255;29;20050;-89
2021/07/27 00:12:07;;;;;;;20.55;16.48;;;17.70;99.90;;;;;;4788246;29;20393;-88
2021/07/27 00:14:34;;;;;;;27.08;16.85;;;17.70;99.90;;;;;;4805000;29;20134;-89
2021/07/27 00:17:02;;;;;;;19.15;16.15;;;17.70;99.90;;;;;;4788708;29;20043;-89
2021/07/27 00:19:29;;;;;;;17.63;15.35;;;17.70;99.90;;;;;;4782540;29;20146;-89
2021/07/27 00:21:56;;;;;;;22.02;16.40;;;17.70;99.90;;;;;;4808388;29;20083;-89
2021/07/27 00:24:26;;;;;;;21.95;17.30;;;17.70;99.90;;;;;;4812014;29;20043;-89
2021/07/27 00:26:57;;;;;;;23.80;16.60;;;17.70;99.90;;;;;;4792272;29;20106;-89
2021/07/27 00:29:24;;;;;;;27.80;16.60;;;17.70;99.90;;;;;;4792238;29;20351;-88
2021/07/27 00:31:51;;;;;;;17.98;15.77;;;17.70;99.90;;;;;;4808448;29;20059;-89
2021/07/27 00:34:19;;;;;;;20.08;15.63;;;17.70;99.90;;;;;;4792155;29;20077;-89
2021/07/27 00:36:46;;;;;;;19.98;17.17;;;17.70;99.90;;;;;;4792714;29;20058;-89
2021/07/27 00:39:13;;;;;;;22.65;16.10;;;17.70;99.90;;;;;;4821413;29;20545;-89
2021/07/27 00:41:41;;;;;;;19.45;16.00;;;17.70;99.90;;;;;;4792624;29;20050;-89
2021/07/27 00:44:08;;;;;;;18.20;15.73;;;17.70;99.90;;;;;;4783209;29;20058;-89
2021/07/27 00:46:38;;;;;;;20.33;15.77;;;17.60;99.90;;;;;;4799872;29;20054;-88
2021/07/27 00:49:05;;;;;;;18.40;16.27;;;17.60;99.90;;;;;;4806079;29;20059;-89
2021/07/27 00:51:32;;;;;;;22.27;14.82;;;17.70;99.90;;;;;;4792174;29;20118;-89
2021/07/27 00:54:00;;;;;;;17.83;15.32;;;17.70;99.90;;;;;;4821916;29;20128;-89
2021/07/27 00:56:28;;;;;;;23.80;15.83;;;17.60;99.90;;;;;;4784364;29;20046;-89
2021/07/27 00:58:58;;;;;;;17.10;13.98;;;17.60;99.90;;;;;;4819029;29;20051;-89
2021/07/27 01:01:25;;;;;;;18.08;13.20;;;17.60;99.90;;;;;;4791863;29;20338;-88
2021/07/27 01:03:52;;;;;;;19.95;14.00;;;17.60;99.90;;;;;;4807797;29;20050;-89
2021/07/27 01:06:20;;;;;;;18.08;14.80;;;17.60;99.90;;;;;;4791685;29;20094;-89
2021/07/27 01:08:48;;;;;;;19.52;14.98;;;17.60;99.90;;;;;;4807899;29;20063;-89
2021/07/27 01:11:23;;;;;;;16.13;14.50;;;17.60;99.90;;;;;;4807280;29;20438;-89
2021/07/27 01:13:50;;;;;;;16.40;14.75;;;17.60;99.90;;;;;;4785056;29;20480;-89
2021/07/27 01:16:21;;;;;;;18.70;14.05;;;17.60;99.90;;;;;;4808073;29;20454;-89
2021/07/27 01:19:16;;;;;;;16.98;14.73;;;17.60;99.90;;;;;;4792510;29;20057;-90
2021/07/27 01:43:29;;;;;;;19.23;14.65;;;17.50;99.90;;;;;;4799688;29;20061;-88
2021/07/27 01:45:56;;;;;;;16.10;14.10;;;17.50;99.90;;;;;;4783531;29;20142;-88
2021/07/27 01:48:28;;;;;;;21.90;14.65;;;17.50;99.90;;;;;;4797285;29;20513;-90
2021/07/27 01:50:58;;;;;;;20.83;15.05;;;17.50;99.90;;;;;;4806871;29;20070;-90
2021/07/27 01:53:38;;;;;;;17.75;15.02;;;17.50;99.90;;;;;;4820604;29;20070;-89
2021/07/27 01:56:08;;;;;;;18.92;15.50;;;17.50;99.90;;;;;;4798695;29;20046;-89
2021/07/27 01:58:37;;;;;;;19.25;15.00;;;17.50;99.90;;;;;;4796066;29;20053;-89
2021/07/27 02:01:07;;;;;;;23.90;15.88;;;17.50;99.90;;;;;;4790891;29;20142;-89
2021/07/27 02:03:34;;;;;;;20.08;16.20;;;17.50;99.90;;;;;;4791275;29;20055;-90
2021/07/27 02:06:01;;;;;;;17.98;16.02;;;17.50;99.90;;;;;;4805681;29;20058;-90
2021/07/27 02:08:28;;;;;;;20.05;16.77;;;17.50;99.90;;;;;;4781207;29;20073;-90
2021/07/27 02:11:03;;;;;;;17.27;15.40;;;17.50;99.90;;;;;;4790812;29;20054;-89
2021/07/27 02:13:32;;;;;;;19.52;15.88;;;17.50;99.90;;;;;;4790920;29;20055;-89
2021/07/27 02:16:02;;;;;;;;;;;17.50;99.90;;;;;;4788114;29;20062;-90
2021/07/27 02:18:32;;;;;;;19.20;16.40;;;17.40;99.90;;;;;;4785244;29;19960;-89
2021/07/27 02:21:02;;;;;;;22.20;17.83;;;17.40;99.90;;;;;;4791042;29;20054;-90
2021/07/27 02:23:29;;;;;;;19.08;17.05;;;17.40;99.90;;;;;;4797172;29;20516;-89
2021/07/27 02:25:57;;;;;;;23.17;18.65;;;17.40;99.90;;;;;;4805267;29;20051;-89
2021/07/27 02:28:24;;;;;;;23.10;17.30;;;17.40;99.90;;;;;;4790526;29;20057;-90
2021/07/27 02:30:56;;;;;;;23.98;17.55;;;17.40;99.90;;;;;;4806611;29;20047;-89
2021/07/27 02:33:23;;;;;;;21.88;18.30;;;17.40;99.90;;;;;;4819862;29;20077;-90
2021/07/27 02:35:52;;;;;;;23.17;19.05;;;17.40;99.90;;;;;;4790744;29;20069;-90
2021/07/27 02:38:19;;;;;;;21.48;18.52;;;17.40;99.90;;;;;;4784873;29;20048;-89
2021/07/27 02:40:46;;;;;;;21.67;18.25;;;17.40;99.90;;;;;;4803512;29;20108;-89
2021/07/27 02:43:13;;;;;;;20.45;17.95;;;17.40;99.90;;;;;;4809748;29;20493;-89
2021/07/27 02:45:40;;;;;;;25.55;18.70;;;17.40;99.90;;;;;;4790114;29;20054;-89
2021/07/27 02:48:07;;;;;;;24.42;19.38;;;17.40;99.90;;;;;;4781000;29;20051;-89
2021/07/27 02:50:34;;;;;;;23.15;18.40;;;17.40;99.90;;;;;;4819909;29;20047;-89
2021/07/27 02:53:05;;;;;;;25.63;19.42;;;17.40;99.90;;;;;;4820478;29;20051;-89
2021/07/27 02:55:36;;;;;;;24.10;19.17;;;17.30;99.90;;;;;;4790114;29;20047;-89
2021/07/27 02:58:24;;;;;;;26.77;19.23;;;17.30;99.90;;;;;;4806660;29;20066;-89
2021/07/27 03:00:51;;;;;;;24.98;18.83;;;17.40;99.90;;;;;;4791688;29;20401;-89
2021/07/27 03:03:20;;;;;;;21.75;17.60;;;17.30;99.90;;;;;;4790053;29;20046;-89
2021/07/27 03:05:47;;;;;;;22.67;18.90;;;17.30;99.90;;;;;;4789808;29;20059;-89
2021/07/27 03:08:19;;;;;;;20.58;17.95;;;17.30;99.90;;;;;;4805481;29;20058;-89
2021/07/27 03:10:46;;;;;;;21.60;17.75;;;17.30;99.90;;;;;;4790301;29;20486;-89
2021/07/27 03:13:13;;;;;;;21.02;18.02;;;17.30;99.90;;;;;;4805324;29;20138;-89
2021/07/27 03:15:42;;;;;;;20.98;17.95;;;17.30;99.90;;;;;;4790082;29;20107;-90
2021/07/27 03:18:09;;;;;;;20.98;17.85;;;17.20;99.90;;;;;;4804902;29;20046;-89
2021/07/27 03:20:38;;;;;;;24.73;18.27;;;17.30;99.90;;;;;;4804895;29;20050;-90
2021/07/27 03:23:07;;;;;;;18.77;16.27;;;17.30;99.90;;;;;;4805177;29;20081;-90
2021/07/27 03:25:36;;;;;;;;;;;17.20;99.90;;;;;;4798829;29;20074;-90
2021/07/27 03:28:03;;;;;;;;;;;17.20;99.90;;;;;;4791334;29;19931;-90
2021/07/27 03:30:30;;;;;;;20.08;16.02;;;17.20;99.90;;;;;;4791873;29;19957;-90
2021/07/27 03:32:57;;;;;;;18.13;16.23;;;17.20;99.90;;;;;;4791005;29;20430;-89
2021/07/27 03:35:24;;;;;;;17.80;16.00;;;17.20;99.90;;;;;;4819139;29;20059;-89
2021/07/27 03:37:51;;;;;;;20.17;16.02;;;17.20;99.90;;;;;;4789407;29;20484;-89
2021/07/27 03:40:18;;;;;;;21.35;15.88;;;17.20;99.90;;;;;;4805650;29;20146;-89
2021/07/27 03:42:45;;;;;;;19.92;16.33;;;17.20;99.90;;;;;;4819157;29;20046;-89
2021/07/27 03:45:12;;;;;;;20.73;16.17;;;17.20;99.90;;;;;;4804449;29;20058;-89
2021/07/27 03:47:40;;;;;;;20.20;17.60;;;17.20;99.90;;;;;;4789495;29;20046;-89
2021/07/27 03:50:10;;;;;;;22.23;17.35;;;17.20;99.90;;;;;;4804808;29;20055;-88
2021/07/27 03:52:38;;;;;;;23.23;17.45;;;17.20;99.90;;;;;;4805564;29;20130;-89
2021/07/27 03:55:06;;;;;;;21.17;17.35;;;17.20;99.90;;;;;;4786274;29;20080;-89
2021/07/27 03:57:33;;;;;;;21.60;17.65;;;17.30;99.90;;;;;;4805343;29;20054;-89
2021/07/27 04:00:00;;;;;;;21.35;17.80;;;17.30;99.90;;;;;;4820537;29;20050;-88
2021/07/27 04:02:31;;;;;;;22.23;17.60;;;17.30;99.90;;;;;;4804356;29;20046;-89
2021/07/27 04:04:58;;;;;;;23.45;18.67;;;17.30;99.90;;;;;;4805369;29;20047;-89
2021/07/27 04:07:27;;;;;;;21.85;17.88;;;17.30;99.90;;;;;;4804939;29;20127;-89
2021/07/27 04:09:58;;;;;;;22.05;18.40;;;17.30;99.90;;;;;;4818831;29;20138;-89
2021/07/27 04:12:25;;;;;;;20.80;16.90;;;17.30;99.90;;;;;;4804239;29;20054;-89
2021/07/27 04:14:52;;;;;;;24.17;18.85;;;17.30;99.90;;;;;;4819484;29;20146;-89
2021/07/27 04:17:20;;;;;;;27.33;18.55;;;17.30;99.90;;;;;;4787036;29;20059;-89
2021/07/27 04:19:50;;;;;;;26.17;19.67;;;17.30;99.90;;;;;;4805422;29;20137;-89
2021/07/27 04:22:17;;;;;;;24.33;18.80;;;17.30;99.90;;;;;;4788748;29;20062;-89
2021/07/27 04:24:44;;;;;;;20.98;18.75;;;17.30;99.90;;;;;;4781096;29;20054;-89
2021/07/27 04:27:11;;;;;;;26.98;19.75;;;17.30;99.90;;;;;;4788075;29;20397;-89
2021/07/27 04:29:38;;;;;;;22.02;18.35;;;17.30;99.90;;;;;;4789770;29;20130;-89
2021/07/27 04:32:08;;;;;;;21.05;18.88;;;17.30;99.90;;;;;;4788040;29;20050;-89
2021/07/27 04:34:37;;;;;;;23.10;18.00;;;17.30;99.90;;;;;;4797853;29;20043;-89
2021/07/27 04:37:04;;;;;;;25.45;19.92;;;17.30;99.90;;;;;;4793517;29;20054;-88
2021/07/27 04:39:31;;;;;;;26.58;19.33;;;17.30;99.90;;;;;;4814146;29;20057;-88
2021/07/27 04:41:59;;;;;;;27.27;18.77;;;17.30;99.90;;;;;;4789790;29;20046;-89
2021/07/27 04:44:27;;;;;;;23.63;19.35;;;17.30;99.90;;;;;;4818402;29;20050;-89
2021/07/27 04:46:54;;;;;;;28.85;20.98;;;17.30;99.90;;;;;;4788922;29;20063;-89
2021/07/27 04:49:21;;;;;;;23.65;19.20;;;17.30;99.90;;;;;;4804546;29;20464;-89
2021/07/27 04:51:48;;;;;;;23.85;20.05;;;17.30;99.90;;;;;;4804330;29;20112;-89
2021/07/27 04:54:26;;;;;;;25.10;19.67;;;17.30;99.90;;;;;;4787983;29;20135;-89
2021/07/27 04:56:58;;;;;;;27.77;20.63;;;17.40;99.90;;;;;;4817740;29;20494;-89
2021/07/27 04:59:27;;;;;;;23.45;19.17;;;17.40;99.90;;;;;;4790370;29;20389;-89
2021/07/27 05:01:54;;;;;;;24.45;19.58;;;17.30;99.90;;;;;;4803958;29;20062;-89
2021/07/27 05:04:21;;;;;;;22.30;19.05;;;17.40;99.90;;;;;;4797523;29;20058;-89
2021/07/27 05:06:48;;;;;;;22.25;18.80;;;17.40;99.90;;;;;;4805231;29;20057;-89
2021/07/27 05:09:15;;;;;;;24.23;18.80;;;17.40;99.90;;;;;;4817692;29;20051;-89
2021/07/27 05:11:42;;;;;;;25.60;19.42;;;17.40;99.90;;;;;;4803612;29;20053;-89
2021/07/27 05:14:09;;;;;;;25.48;19.45;;;17.40;99.90;;;;;;4791187;29;20047;-90
2021/07/27 05:16:40;;;;;;;21.73;19.42;;;17.40;99.90;;;;;;4794616;29;20050;-92
2021/07/27 05:19:07;;;;;;;25.63;18.73;;;17.40;99.90;;;;;;4791168;29;20050;-91
2021/07/27 05:21:42;;;;;;;22.80;18.67;;;17.40;99.90;;;;;;4794192;29;20131;-93
2021/07/27 05:24:22;;;;;;;24.33;18.17;;;17.40;99.90;;;;;;4775619;29;20054;-90
2021/07/27 05:27:12;;;;;;;25.75;19.30;;;17.40;99.90;;;;;;4803185;29;20047;-90
2021/07/27 05:29:42;;;;;;;21.17;17.77;;;17.40;99.90;;;;;;4790529;29;20562;-90
2021/07/27 05:32:12;;;;;;;23.23;18.30;;;17.40;99.90;;;;;;4783286;29;20051;-90
2021/07/27 05:34:52;;;;;;;25.63;17.80;;;17.40;99.90;;;;;;4790436;29;20485;-91
2021/07/27 05:37:27;;;;;;;24.42;18.30;;;17.40;99.90;;;;;;4784862;29;20046;-90
2021/07/27 05:40:14;;;;;;;22.33;16.93;;;17.50;99.90;;;;;;4706757;30;20057;-91
2021/07/27 05:42:47;;;;;;;24.95;18.65;;;17.50;99.90;;;;;;4726928;30;20076;-89
2021/07/27 05:45:15;;;;;;;26.02;18.75;;;17.50;99.90;;;;;;4740371;30;20048;-89
2021/07/27 05:47:42;;;;;;;25.55;19.42;;;17.50;99.90;;;;;;4748627;30;20123;-90
2021/07/27 05:50:11;;;;;;;23.92;18.48;;;17.50;99.90;;;;;;4718677;30;20507;-89
2021/07/27 05:52:38;;;;;;;21.73;18.10;;;17.50;99.90;;;;;;4733624;30;20373;-89
2021/07/27 05:55:06;;;;;;;23.60;18.83;;;17.50;99.90;;;;;;4748098;30;20091;-88
2021/07/27 05:57:33;;;;;;;22.77;18.40;;;17.50;99.90;;;;;;4748269;30;20045;-89
2021/07/27 06:00:00;;;;;;;23.48;18.40;;;17.50;99.90;;;;;;4722721;30;20113;-89
2021/07/27 06:02:27;;;;;;;22.73;18.48;;;17.50;99.90;;;;;;4730641;30;20052;-88
2021/07/27 06:04:54;;;;;;;19.55;17.45;;;17.60;99.90;;;;;;4766431;29;20054;-89
2021/07/27 06:07:22;;;;;;;21.67;17.10;;;17.60;99.90;;;;;;4799164;29;20054;-89
2021/07/27 06:09:52;;;;;;;17.98;16.23;;;17.60;99.90;;;;;;4803936;29;20051;-91
2021/07/27 06:17:59;;;;;;;17.20;13.63;;;17.60;99.90;;;;;;4572349;30;20528;-93
2021/07/27 06:20:29;;;;;;;14.93;13.20;;;17.60;99.90;;;;;;4508781;31;20059;-88
2021/07/27 06:22:54;;;;;;;15.00;13.45;;;17.60;99.90;;;;;;4506865;31;20051;-90
2021/07/27 06:25:20;;;;;;;14.35;12.85;;;17.60;99.90;;;;;;4522004;31;20058;-90
2021/07/27 06:27:46;;;;;;;14.63;13.07;;;17.60;99.90;;;;;;4519765;31;20050;-89
2021/07/27 06:30:13;;;;;;;13.55;12.15;;;17.60;99.90;;;;;;4518960;31;20476;-89
2021/07/27 06:32:38;;;;;;;14.90;12.80;;;17.60;99.90;;;;;;4517233;31;20046;-89
2021/07/27 06:35:05;;;;;;;12.95;11.40;;;17.60;99.90;;;;;;4535427;31;20054;-89
2021/07/27 06:37:30;;;;;;;13.70;11.30;;;17.60;99.90;;;;;;4520697;31;20076;-89
2021/07/27 06:39:56;;;;;;;14.85;12.23;;;17.60;99.90;;;;;;4518536;31;20058;-89
2021/07/27 06:42:22;;;;;;;12.68;11.15;;;17.60;99.90;;;;;;4518659;31;20042;-89
2021/07/27 06:44:49;;;;;;;11.85;10.60;;;17.70;99.90;;;;;;4534834;31;20057;-88
2021/07/27 06:47:16;;;;;;;12.98;10.55;;;17.70;99.90;;;;;;4545685;31;20505;-88
2021/07/27 06:49:43;;;;;;;11.57;10.30;;;17.70;99.90;;;;;;4533393;31;20150;-88
2021/07/27 06:52:10;;;;;;;12.70;11.38;;;17.60;99.90;;;;;;4615620;30;20057;-88
2021/07/27 06:54:37;;;;;;;14.05;10.90;;;17.60;99.90;;;;;;4699797;30;20486;-88
2021/07/27 06:57:04;;;;;;;12.45;10.25;;;17.60;99.90;;;;;;4770862;29;20148;-89
2021/07/27 06:59:31;;;;;;;10.25;9.18;;;17.60;99.90;;;;;;4787749;29;20395;-89
2021/07/27 07:01:58;;;;;;;13.02;8.90;;;17.50;99.90;;;;;;4771721;29;20375;-89
2021/07/27 07:04:25;;;;;;;8.55;7.18;;;17.50;99.90;;;;;;4772499;29;20051;-89
2021/07/27 07:06:52;;;;;;;11.60;8.73;;;17.50;99.90;;;;;;4787687;29;20055;-89
2021/07/27 07:09:19;;;;;;;9.68;7.38;;;17.50;99.90;;;;;;4786052;29;20059;-89
2021/07/27 07:11:46;;;;;;;10.73;7.18;;;17.50;99.90;;;;;;4787655;29;20480;-89
2021/07/27 07:14:13;;;;;;;8.75;6.97;;;17.60;99.90;;;;;;4800767;29;20128;-89
2021/07/27 07:16:40;;;;;;;9.80;6.25;;;17.70;99.90;;;;;;4771784;29;20051;-89
2021/07/27 07:19:07;;;;;;;8.40;6.55;;;17.80;99.90;;;;;;4794192;29;20062;-90
2021/07/27 07:21:34;;;;;;;6.72;5.80;;;17.90;99.90;;;;;;4819680;29;20054;-89
2021/07/27 07:24:01;;;;;;;7.28;5.35;;;18.10;99.90;;;;;;4789864;29;20765;-89
2021/07/27 07:26:28;;;;;;;10.18;5.07;;;18.30;99.90;;;;;;4798542;29;20050;-89
2021/07/27 07:28:55;;;;;;;7.25;4.57;;;18.40;99.90;;;;;;4816562;29;20099;-89
2021/07/27 07:31:22;;;;;;;8.32;3.83;;;18.40;99.90;;;;;;4789132;29;20053;-89
2021/07/27 07:33:51;;;;;;;6.95;3.20;;;18.40;99.90;;;;;;4789624;29;20077;-89
2021/07/27 07:36:20;;;;;;;5.60;3.30;;;18.40;99.90;;;;;;4788712;29;20043;-89
2021/07/27 07:38:47;;;;;;;6.60;3.00;;;18.40;99.90;;;;;;4789567;29;20078;-87
2021/07/27 07:41:14;;;;;;;5.50;3.38;;;18.40;99.90;;;;;;4786996;29;20367;-86
2021/07/27 07:43:41;;;;;;;6.38;3.80;;;18.50;99.90;;;;;;4805684;29;20047;-87
2021/07/27 07:46:09;;;;;;;8.27;3.20;;;18.60;99.90;;;;;;4789435;29;20051;-87
2021/07/27 07:48:36;;;;;;;5.53;2.70;;;18.50;99.90;;;;;;4819543;29;20121;-86
2021/07/27 07:51:03;;;;;;;5.00;2.40;;;18.50;99.90;;;;;;4805622;29;20497;-87
2021/07/27 07:53:33;;;;;;;7.20;2.50;;;18.40;99.90;;;;;;4809724;29;20050;-86
2021/07/27 07:56:00;;;;;;;5.78;2.20;;;18.40;99.90;;;;;;4813656;29;20694;-86
2021/07/27 07:58:27;;;;;;;3.13;1.92;;;18.30;99.90;;;;;;4805208;29;20043;-86
2021/07/27 08:00:55;;;;;;;5.22;2.20;;;18.30;99.90;;;;;;4805259;29;20055;-86
2021/07/27 08:03:23;;;;;;;5.45;2.30;;;18.30;99.90;;;;;;4805079;29;20549;-86
2021/07/27 08:05:50;;;;;;;5.05;1.80;;;18.40;99.90;;;;;;4804960;29;20050;-87
2021/07/27 08:08:19;;;;;;;3.83;1.88;;;18.40;99.90;;;;;;4804504;29;20057;-87
2021/07/27 08:10:46;;;;;;;2.58;1.50;;;18.30;99.90;;;;;;4805054;29;20061;-86
2021/07/27 08:13:13;;;;;;;2.53;1.17;;;18.30;99.90;;;;;;4804780;29;20059;-86
2021/07/27 08:15:40;;;;;;;3.00;1.45;;;18.40;99.90;;;;;;4818353;29;20424;-87
2021/07/27 08:18:07;;;;;;;5.40;1.55;;;18.40;99.90;;;;;;4801039;29;20054;-86
2021/07/27 08:20:34;;;;;;;2.78;1.40;;;18.50;99.90;;;;;;4802850;29;20053;-87
2021/07/27 08:23:02;;;;;;;4.07;1.75;;;18.70;99.90;;;;;;4803335;29;20059;-86
2021/07/27 08:25:29;;;;;;;3.33;1.57;;;18.70;99.90;;;;;;4802374;29;20101;-87
2021/07/27 08:27:56;;;;;;;4.53;1.42;;;18.70;99.90;;;;;;4797130;29;20055;-87
2021/07/27 08:30:24;;;;;;;2.33;1.27;;;18.70;99.90;;;;;;4799572;29;20058;-87
2021/07/27 08:32:52;;;;;;;2.58;1.30;;;18.80;99.90;;;;;;4786618;29;20056;-86
2021/07/27 08:35:21;;;;;;;4.00;1.40;;;18.80;99.90;;;;;;4809288;29;20051;-86
2021/07/27 08:37:49;;;;;;;3.13;1.50;;;18.80;99.90;;;;;;4803665;29;20072;-87
2021/07/27 08:40:18;;;;;;;;;;;18.90;99.90;;;;;;4803916;29;20046;-87
2021/07/27 08:42:48;;;;;;;5.25;1.05;;;18.80;99.90;;;;;;4805051;29;19933;-86
2021/07/27 08:45:15;;;;;;;2.60;1.17;;;18.90;99.90;;;;;;4802754;29;20528;-86
2021/07/27 08:47:48;;;;;;;1.95;1.10;;;19.00;99.90;;;;;;4803601;29;20051;-86
2021/07/27 08:50:17;;;;;;;2.67;1.20;;;19.00;99.90;;;;;;4801654;29;20074;-86
2021/07/27 08:52:44;;;;;;;2.92;1.10;;;19.10;99.90;;;;;;4806865;29;20062;-86
2021/07/27 08:55:12;;;;;;;3.42;1.20;;;19.10;99.90;;;;;;4806642;29;20050;-86
2021/07/27 08:57:58;;;;;;;1.65;1.00;;;19.20;99.90;;;;;;4787320;29;20053;-86
2021/07/27 09:00:28;;;;;;;1.73;1.35;;;19.00;99.90;;;;;;4806609;29;20050;-86
2021/07/27 09:03:06;;;;;;;3.35;1.23;;;19.00;99.90;;;;;;4800819;29;20137;-86
2021/07/27 09:05:33;;;;;;;2.58;1.30;;;19.00;99.90;;;;;;4806942;29;20050;-86
2021/07/27 09:08:03;;;;;;;2.78;1.38;;;19.00;99.90;;;;;;4807058;29;20138;-86
2021/07/27 09:14:09;;;;;;;3.88;1.23;;;19.20;99.90;;;;;;4749558;29;20056;-89
2021/07/27 09:16:49;;;;;;;3.53;1.20;;;19.40;99.90;;;;;;4738162;30;20053;-91
2021/07/27 09:19:17;;;;;;;3.83;1.20;;;19.50;99.90;;;;;;4733701;30;20052;-90
2021/07/27 09:21:54;;;;;;;4.70;1.20;;;19.40;99.90;;;;;;4747804;30;20129;-90
2021/07/27 09:24:28;;;;;;;2.75;1.15;;;19.40;99.90;;;;;;4725352;30;20964;-90
2021/07/27 09:27:12;;;;;;;2.38;1.10;;;19.50;99.90;;;;;;4734888;30;20059;-90
2021/07/27 09:29:46;;;;;;;3.95;1.20;;;19.60;99.90;;;;;;4763747;30;20052;-90
2021/07/27 09:32:23;;;;;;;3.33;1.17;;;19.60;99.90;;;;;;4734964;30;20086;-90
2021/07/27 09:34:53;;;;;;;2.83;1.30;;;19.70;99.90;;;;;;4726193;30;20052;-90
2021/07/27 09:37:28;;;;;;;1.98;1.00;;;19.90;99.90;;;;;;4739778;30;20060;-90
2021/07/27 09:40:07;;;;;;;3.35;1.42;;;19.90;99.90;;;;;;4753022;30;20048;-90
2021/07/27 09:42:36;;;;;;;2.55;1.00;;;20.00;99.90;;;;;;4753575;30;20048;-89
2021/07/27 09:45:04;;;;;;;3.65;1.40;;;20.10;99.90;;;;;;4758284;30;20509;-89
2021/07/27 09:47:31;;;;;;;3.78;1.17;;;20.30;99.90;;;;;;4751879;30;20128;-90
2021/07/27 09:49:59;;;;;;;5.15;1.45;;;20.50;99.90;;;;;;4766063;29;20463;-91
2021/07/27 09:52:33;;;;;;;3.78;1.30;;;20.50;99.90;;;;;;4784994;29;20055;-92
2021/07/27 09:55:02;;;;;;;3.50;1.30;;;20.60;99.90;;;;;;4800889;29;20069;-91
2021/07/27 09:57:29;;;;;;;3.92;1.33;;;20.70;99.90;;;;;;4785438;29;20092;-92
2021/07/27 10:00:00;;;;;;;4.82;1.77;;;20.70;99.90;;;;;;4803526;29;20046;-91
2021/07/27 10:02:30;;;;;;;3.20;1.23;;;20.70;99.90;;;;;;4789522;29;20125;-92
2021/07/27 10:05:08;;;;;;;3.67;1.20;;;20.70;99.90;;;;;;4781910;29;20449;-91
2021/07/27 10:07:58;;;;;;;2.75;1.33;;;20.60;99.90;;;;;;4794065;29;20046;-92
2021/07/27 10:10:37;;;;;;;3.42;1.35;;;20.60;99.90;;;;;;4790849;29;20043;-91
2021/07/27 10:13:13;;;;;;;2.67;1.40;;;20.70;99.90;;;;;;4799409;29;20054;-91
2021/07/27 10:15:47;;;;;;;4.28;1.50;;;20.70;99.90;;;;;;4811176;29;20481;-89
2021/07/27 10:18:31;;;;;;;5.18;1.48;;;20.70;99.90;;;;;;4782895;29;20059;-88
2021/07/27 10:21:27;;;;;;;4.53;1.40;;;20.70;99.90;;;;;;4808711;29;20051;-92
2021/07/27 10:24:23;;;;;;;4.60;1.52;;;20.70;99.90;;;;;;4805678;29;20055;-91
2021/07/27 10:27:06;;;;;;;4.50;1.17;;;20.60;99.90;;;;;;4796047;29;20098;-91
2021/07/27 10:29:33;;;;;;;3.28;1.27;;;20.60;99.90;;;;;;4792921;29;20031;-88
2021/07/27 10:32:23;;;;;;;5.25;1.35;;;20.70;99.90;;;;;;4817925;29;20393;-89
2021/07/27 10:34:54;;;;;;;6.05;1.55;;;20.80;99.90;;;;;;4805105;29;20394;-89
2021/07/27 10:37:21;;;;;;;6.53;1.65;;;21.10;99.90;;;;;;4782953;29;20576;-90
2021/07/27 10:40:30;;;;;;;4.90;1.70;;;21.10;99.90;;;;;;4786329;29;20137;-89
2021/07/27 10:43:07;;;;;;;6.78;1.80;;;20.90;99.90;;;;;;4800593;29;20117;-91
2021/07/27 10:48:35;;;;;;;6.90;1.58;;;20.60;99.90;;;;;;4784719;29;20879;-89
2021/07/27 10:51:02;;;;;;;4.60;1.50;;;20.30;99.90;;;;;;4792311;29;20512;-88
2021/07/27 10:53:34;;;;;;;9.90;1.67;;;20.20;99.90;;;;;;4787823;29;20047;-89
2021/07/27 10:56:08;;;;;;;3.95;1.25;;;20.00;99.90;;;;;;4786245;29;20108;-88
2021/07/27 10:58:35;;;;;;;6.22;1.58;;;19.90;99.90;;;;;;4800734;29;20054;-88
2021/07/27 11:01:10;;;;;;;5.20;1.83;;;19.90;99.90;;;;;;4801456;29;20059;-88
2021/07/27 11:03:41;;;;;;;3.35;1.40;;;20.00;99.90;;;;;;4800738;29;20054;-88
2021/07/27 11:06:08;;;;;;;6.57;1.70;;;20.00;99.90;;;;;;4800515;29;20054;-88
2021/07/27 11:08:35;;;;;;;6.40;1.90;;;20.20;99.90;;;;;;4803396;29;20104;-88
2021/07/27 11:11:13;;;;;;;8.27;1.90;;;20.20;99.90;;;;;;4797068;29;20050;-86
2021/07/27 11:13:53;;;;;;;6.85;1.88;;;20.30;99.90;;;;;;4787091;29;20142;-91
2021/07/27 11:16:29;;;;;;;7.10;1.98;;;20.40;99.90;;;;;;4788211;29;20083;-94
2021/07/27 11:19:28;;;;;;;6.68;2.10;;;20.60;99.90;;;;;;4762770;29;20526;-89
2021/07/27 11:22:06;;;;;;;;;;;;;;;;;;;;;
2021/07/27 11:24:34;;;;;;;6.28;2.03;;;20.50;99.90;;;;;;4792141;29;20046;-92
2021/07/27 11:27:19;;;;;;;6.88;2.00;;;20.50;99.90;;;;;;4789353;29;20065;-92
2021/07/27 11:29:57;;;;;;;9.60;2.00;;;20.70;99.90;;;;;;4795671;29;20061;-89
2021/07/27 11:32:26;;;;;;;5.80;1.88;;;20.60;99.90;;;;;;4805299;29;20127;-89
2021/07/27 11:34:57;;;;;;;4.95;1.60;;;20.60;99.90;;;;;;4801922;29;20055;-88
2021/07/27 11:37:25;;;;;;;8.10;2.03;;;20.60;99.90;;;;;;4802439;29;20459;-88
2021/07/27 11:39:55;;;;;;;6.57;1.83;;;20.70;99.90;;;;;;4784304;29;20091;-86
2021/07/27 11:42:31;;;;;;;;;;;20.70;99.90;;;;;;4782113;29;20130;-89
2021/07/27 11:45:01;;;;;;;5.65;1.38;;;20.80;99.90;;;;;;4800615;29;19959;-87
2021/07/27 11:47:41;;;;;;;5.30;1.60;;;20.80;99.90;;;;;;4813373;29;21538;-86
2021/07/27 11:50:30;;;;;;;7.85;1.90;;;20.90;99.90;;;;;;4798653;29;20394;-87
2021/07/27 11:53:05;;;;;;;9.20;2.05;;;20.90;99.90;;;;;;4798520;29;20051;-87
2021/07/27 11:55:40;;;;;;;10.15;2.08;;;21.00;99.90;;;;;;4800655;29;20050;-86
2021/07/27 11:58:08;;;;;;;5.93;1.85;;;21.10;99.90;;;;;;4805241;29;20540;-89
2021/07/27 12:00:45;;;;;;;7.85;2.85;;;21.30;99.90;;;;;;4778367;29;20103;-89
2021/07/27 12:03:13;;;;;;;5.90;1.80;;;21.40;99.90;;;;;;4779989;29;20070;-86
2021/07/27 12:05:40;;;;;;;10.77;2.30;;;21.60;99.90;;;;;;4789971;29;20051;-86
2021/07/27 12:08:07;;;;;;;6.22;2.22;;;21.60;99.90;;;;;;4790087;29;20066;-86
2021/07/27 12:10:34;;;;;;;7.15;1.70;;;21.50;99.90;;;;;;4800142;29;20051;-86
2021/07/27 12:13:01;;;;;;;9.23;2.05;;;21.40;99.90;;;;;;4788537;29;20065;-89
2021/07/27 12:15:28;;;;;;;6.95;2.05;;;21.50;99.90;;;;;;4789719;29;20047;-87
2021/07/27 12:17:56;;;;;;;7.85;2.10;;;21.40;99.90;;;;;;4781036;29;20070;-87
2021/07/27 12:20:31;;;;;;;5.72;1.90;;;21.30;99.90;;;;;;4787549;29;20426;-86
2021/07/27 12:22:59;;;;;;;7.82;2.25;;;21.30;99.90;;;;;;4787902;29;20134;-87
2021/07/27 12:25:26;;;;;;;7.45;2.38;;;21.10;99.90;;;;;;4804789;29;20425;-87
2021/07/27 12:27:53;;;;;;;7.85;2.30;;;21.00;99.90;;;;;;4806902;29;20063;-86
2021/07/27 12:30:20;;;;;;;8.07;2.28;;;21.10;99.90;;;;;;4792849;29;20051;-86
2021/07/27 12:32:47;;;;;;;5.32;2.03;;;21.20;99.90;;;;;;4789600;29;20146;-87
2021/07/27 12:35:15;;;;;;;7.57;2.47;;;21.10;99.90;;;;;;4805652;29;20069;-87
2021/07/27 12:37:42;;;;;;;9.38;2.30;;;21.00;99.90;;;;;;4785224;29;20758;-87
2021/07/27 12:40:12;;;;;;;7.35;2.13;;;21.00;99.90;;;;;;4806716;29;20051;-87
2021/07/27 12:42:39;;;;;;;4.78;1.48;;;21.00;99.90;;;;;;4793359;29;20145;-87
2021/07/27 12:45:07;;;;;;;7.53;2.17;;;21.00;99.90;;;;;;4797484;29;20055;-87
2021/07/27 12:47:36;;;;;;;7.78;2.10;;;21.20;99.90;;;;;;4807050;29;20051;-87
2021/07/27 12:50:08;;;;;;;4.85;1.60;;;21.20;99.90;;;;;;4805393;29;20074;-87
2021/07/27 12:52:35;;;;;;;5.03;1.80;;;21.20;99.90;;;;;;4818466;29;20061;-87
2021/07/27 12:55:03;;;;;;;5.80;1.80;;;21.10;99.90;;;;;;4808091;29;20055;-88
2021/07/27 12:57:32;;;;;;;6.20;1.83;;;21.00;99.90;;;;;;4804966;29;20129;-90
2021/07/27 13:00:03;;;;;;;7.35;2.45;;;21.00;99.90;;;;;;4809228;29;20451;-89
2021/07/27 13:02:30;;;;;;;9.75;2.30;;;21.00;99.90;;;;;;4794810;29;20541;-87
2021/07/27 13:04:58;;;;;;;7.18;2.28;;;20.90;99.90;;;;;;4811976;29;20138;-87
2021/07/27 13:07:25;;;;;;;7.00;2.20;;;21.00;99.90;;;;;;4790542;29;20048;-87
2021/07/27 13:09:52;;;;;;;5.90;2.30;;;21.00;99.90;;;;;;4823961;29;20109;-87
2021/07/27 13:12:20;;;;;;;8.30;2.50;;;20.80;99.90;;;;;;4804707;29;20482;-88
2021/07/27 13:14:47;;;;;;;8.50;2.10;;;20.80;99.90;;;;;;4819430;29;20065;-87
2021/07/27 13:17:15;;;;;;;7.13;2.00;;;20.80;99.90;;;;;;4794035;29;20047;-87
2021/07/27 13:19:42;;;;;;;7.15;2.38;;;20.70;99.90;;;;;;4795077;29;20486;-87
2021/07/27 13:22:10;;;;;;;8.68;2.38;;;20.70;99.90;;;;;;4792929;29;20516;-87
2021/07/27 13:24:37;;;;;;;7.47;2.22;;;20.70;99.90;;;;;;4818579;29;20150;-88
2021/07/27 13:27:06;;;;;;;10.35;2.40;;;20.80;99.90;;;;;;4805929;29;20109;-87